USTRANSCOM 7745


LICZ
NAS Sigonella
Sigonella, IT
OBBI
Bahrain International Airport
Manama, BH

Route Details

Aircraft Information
Primary: Boeing 757-200SF
Backup: Not Available
Route Data
Distance: 1929nm
Sched. Duration: 4h 29m
Avg. Duration: 4h 66m (+36m)
Times Flown: 2
Recm'd Route: ERNAM5U ERNAM EMLAR N4 SALUN Q680 DBA UM872 WEJ UL604 KFA M691 LADNA LADNA1
Planned Altitude: 33,000ft
Origin Wx: LICZ 281055Z 25021G32KT 9999 SCT020 18/09 Q1015 RMK SCT VIS MIN 9999 WIND THR28 26021G31KT WIND THR10 25022G32KT A2998 BLU
Dest. Wx: OBBI 281130Z 32017KT 8000 SKC 21/13 Q1015 NOSIG
Notes: USTRANSCOM CONTRACT FLIGHT

Financial History
Total Freight: 66,009lbs
Average Load: 33,005lbs/flt
Fuel Used: 77,590lbs
Avg. Fuel Used: 38,795lbs/flt
Fuel Expense: $62,072
Avg. Fuel Expense: $31,036
Avg. Fuel Cost: $0.80/lbs
Total Gross Income: $131,358
Pilot Pay: $378
Total Expenses: $14,291
Total Revenue: $53,203
Average Revenue: $65,678.95